createdAt,value
2022-11-16T00:02:18.296Z,21.57
2022-11-16T00:04:44.881Z,22.27
2022-11-16T00:07:11.540Z,20.40
2022-11-16T00:09:38.340Z,20.13
2022-11-16T00:12:07.154Z,21.03
2022-11-16T00:14:35.359Z,20.47
2022-11-16T00:17:03.199Z,23.47
2022-11-16T00:19:29.872Z,21.53
2022-11-16T00:21:56.723Z,24.63
2022-11-16T00:24:23.829Z,21.50
2022-11-16T00:26:51.192Z,24.33
2022-11-16T00:29:25.352Z,23.00
2022-11-16T00:31:52.627Z,21.83
2022-11-16T00:34:19.909Z,23.13
2022-11-16T00:36:46.968Z,22.47
2022-11-16T00:39:15.191Z,22.13
2022-11-16T00:41:43.205Z,23.30
2022-11-16T00:44:10.504Z,21.60
2022-11-16T00:46:37.479Z,24.50
2022-11-16T00:49:05.686Z,23.53
2022-11-16T00:51:33.231Z,23.57
2022-11-16T00:53:59.896Z,23.67
2022-11-16T00:56:26.522Z,22.37
2022-11-16T00:58:53.192Z,22.13
2022-11-16T01:01:19.968Z,22.20
2022-11-16T01:03:47.824Z,22.90
2022-11-16T01:06:16.058Z,22.63
2022-11-16T01:08:43.859Z,21.90
2022-11-16T01:11:32.754Z,21.27
2022-11-16T01:14:06.151Z,21.70
2022-11-16T01:16:33.003Z,20.70
2022-11-16T01:18:59.899Z,22.43
2022-11-16T01:21:27.847Z,21.83
2022-11-16T01:23:55.762Z,23.40
2022-11-16T01:26:22.504Z,22.40
2022-11-16T01:28:49.124Z,21.10
2022-11-16T01:31:15.804Z,21.83
2022-11-16T01:33:42.469Z,21.30
2022-11-16T01:36:14.785Z,20.47
2022-11-16T01:38:46.034Z,20.50
2022-11-16T01:41:18.565Z,22.03
2022-11-16T01:43:57.381Z,23.90
2022-11-16T01:46:25.028Z,22.57
2022-11-16T01:48:58.182Z,22.97
2022-11-16T01:51:26.913Z,22.03
2022-11-16T01:53:54.045Z,21.53
2022-11-16T01:56:21.833Z,22.00
2022-11-16T01:58:49.747Z,22.07
2022-11-16T02:01:16.519Z,23.97
2022-11-16T02:03:43.228Z,27.60
2022-11-16T02:06:27.754Z,26.00
2022-11-16T02:09:43.027Z,25.73
2022-11-16T02:12:30.694Z,23.37
2022-11-16T02:15:18.478Z,20.60
2022-11-16T02:18:10.245Z,23.83
2022-11-16T02:20:45.755Z,25.47
2022-11-16T02:23:30.614Z,25.23
2022-11-16T02:26:34.471Z,23.80
2022-11-16T02:29:22.599Z,23.43
2022-11-16T02:32:11.447Z,24.00
2022-11-16T02:34:45.224Z,25.33
2022-11-16T02:37:16.211Z,25.13
2022-11-16T02:39:45.531Z,26.53
2022-11-16T02:42:17.306Z,26.73
2022-11-16T02:44:50.123Z,25.30
2022-11-16T02:47:24.365Z,25.70
2022-11-16T02:50:03.376Z,25.47
2022-11-16T02:52:30.066Z,28.40
2022-11-16T02:54:56.668Z,25.63
2022-11-16T02:57:49.299Z,29.83
2022-11-16T03:00:21.322Z,37.73
2022-11-16T03:03:14.407Z,40.13
2022-11-16T03:05:58.312Z,41.47
2022-11-16T03:08:35.478Z,39.17
2022-11-16T03:11:27.030Z,36.27
2022-11-16T03:14:00.781Z,38.17
2022-11-16T03:16:33.258Z,39.57
2022-11-16T03:19:03.574Z,37.57
2022-11-16T03:21:39.800Z,39.27
2022-11-16T03:24:07.706Z,40.47
2022-11-16T03:26:44.440Z,39.00
2022-11-16T03:29:20.219Z,40.07
2022-11-16T03:31:51.830Z,38.40
2022-11-16T03:34:23.531Z,41.13
2022-11-16T03:36:52.901Z,39.63
2022-11-16T03:39:29.213Z,38.20
2022-11-16T03:41:58.071Z,38.43
2022-11-16T03:44:25.715Z,38.90
2022-11-16T03:46:52.482Z,37.80
2022-11-16T03:49:23.597Z,36.17
2022-11-16T03:51:51.820Z,32.07
2022-11-16T03:54:18.493Z,31.87
2022-11-16T03:56:45.129Z,28.43
2022-11-16T03:59:12.369Z,29.87
2022-11-16T04:01:44.383Z,30.00
2022-11-16T04:04:31.391Z,30.03
2022-11-16T04:07:16.770Z,30.07
2022-11-16T04:10:02.261Z,27.83
2022-11-16T04:12:47.354Z,28.67
2022-11-16T04:15:32.879Z,28.00
2022-11-16T04:18:18.096Z,30.83
2022-11-16T04:21:03.652Z,30.93
2022-11-16T04:23:48.910Z,30.87
2022-11-16T04:26:15.943Z,32.50
2022-11-16T04:28:42.927Z,31.97
2022-11-16T04:31:28.175Z,29.47
2022-11-16T04:34:13.469Z,30.97
2022-11-16T04:36:58.604Z,31.87
2022-11-16T04:39:25.297Z,31.57
2022-11-16T04:42:10.516Z,32.40
2022-11-16T04:44:55.670Z,29.73
2022-11-16T04:47:22.295Z,28.93
2022-11-16T04:49:49.010Z,27.10
2022-11-16T04:52:15.694Z,29.67
2022-11-16T04:54:42.293Z,29.50
2022-11-16T04:57:09.079Z,30.80
2022-11-16T04:59:35.714Z,30.63
2022-11-16T05:02:08.324Z,28.93
2022-11-16T05:04:44.471Z,32.83
2022-11-16T05:07:14.647Z,33.17
2022-11-16T05:09:43.486Z,32.90
2022-11-16T05:12:11.776Z,32.73
2022-11-16T05:14:38.359Z,31.93
2022-11-16T05:17:05.011Z,32.90
2022-11-16T05:19:50.331Z,36.77
2022-11-16T05:22:16.963Z,33.60
2022-11-16T05:24:44.180Z,32.50
2022-11-16T05:27:14.279Z,31.53
2022-11-16T05:29:41.069Z,35.27
2022-11-16T05:32:08.125Z,35.13
2022-11-16T05:34:34.795Z,35.70
2022-11-16T05:37:02.276Z,35.60
2022-11-16T05:39:29.108Z,36.77
2022-11-16T05:41:56.822Z,36.23
2022-11-16T05:44:23.792Z,35.50
2022-11-16T05:46:50.982Z,32.10
2022-11-16T05:49:24.333Z,35.33
2022-11-16T05:51:51.542Z,36.80
2022-11-16T05:54:21.242Z,35.40
2022-11-16T05:56:49.449Z,34.20
2022-11-16T05:59:18.555Z,35.17
2022-11-16T06:01:45.274Z,35.13
2022-11-16T06:04:12.434Z,35.97
2022-11-16T06:06:39.045Z,35.47
2022-11-16T06:09:06.080Z,36.00
2022-11-16T06:11:36.040Z,34.80
2022-11-16T06:14:03.233Z,36.03
2022-11-16T06:16:30.116Z,26.20
2022-11-16T06:18:56.759Z,33.90
2022-11-16T06:21:23.339Z,27.73
2022-11-16T06:23:50.070Z,32.50
2022-11-16T06:26:16.688Z,27.53
2022-11-16T06:28:43.509Z,31.63
2022-11-16T06:31:10.137Z,28.03
2022-11-16T06:33:36.993Z,30.43
2022-11-16T06:36:03.933Z,35.70
2022-11-16T06:38:30.659Z,33.37
2022-11-16T06:40:58.830Z,31.20
2022-11-16T06:43:26.302Z,31.47
2022-11-16T06:45:55.533Z,30.57
2022-11-16T06:48:22.795Z,29.83
2022-11-16T06:50:50.821Z,30.87
2022-11-16T06:53:18.343Z,28.47
2022-11-16T06:55:45.053Z,30.63
2022-11-16T06:58:11.855Z,30.67
2022-11-16T07:00:38.543Z,31.17
2022-11-16T07:03:05.515Z,32.50
2022-11-16T07:05:32.476Z,30.10
2022-11-16T07:07:59.527Z,28.83
2022-11-16T07:10:26.562Z,29.70
2022-11-16T07:12:53.226Z,27.20
2022-11-16T07:15:20.156Z,26.33
2022-11-16T07:17:47.067Z,26.00
2022-11-16T07:20:14.230Z,25.07
2022-11-16T07:22:40.918Z,27.97
2022-11-16T07:25:08.268Z,28.47
2022-11-16T07:27:34.949Z,28.60
2022-11-16T07:30:02.288Z,31.40
2022-11-16T07:32:31.246Z,26.90
2022-11-16T07:34:59.402Z,26.17
2022-11-16T07:37:26.444Z,26.17
2022-11-16T07:39:53.085Z,27.10
2022-11-16T07:42:19.749Z,27.57
2022-11-16T07:44:46.395Z,28.17
2022-11-16T07:47:13.025Z,28.37
2022-11-16T07:49:39.647Z,26.50
2022-11-16T07:52:10.187Z,27.00
2022-11-16T07:54:37.315Z,26.47
2022-11-16T07:57:03.973Z,26.10
2022-11-16T07:59:30.640Z,28.10
2022-11-16T08:01:59.266Z,25.90
2022-11-16T08:04:26.150Z,26.73
2022-11-16T08:06:52.872Z,26.47
2022-11-16T08:09:19.741Z,25.10
2022-11-16T08:11:47.255Z,26.17
2022-11-16T08:14:14.165Z,26.03
2022-11-16T08:16:40.743Z,26.70
2022-11-16T08:19:07.307Z,23.67
2022-11-16T08:21:33.889Z,23.73
2022-11-16T08:24:00.520Z,24.87
2022-11-16T08:26:27.670Z,24.80
2022-11-16T08:28:56.493Z,23.57
2022-11-16T08:31:28.052Z,23.30
2022-11-16T08:33:54.844Z,24.70
2022-11-16T08:36:21.545Z,24.00
2022-11-16T08:38:49.322Z,25.30
2022-11-16T08:41:17.354Z,26.17
2022-11-16T08:43:44.677Z,25.53
2022-11-16T08:46:11.649Z,24.83
2022-11-16T08:48:39.003Z,25.87
2022-11-16T08:51:19.575Z,27.73
2022-11-16T08:53:48.585Z,24.67
2022-11-16T08:56:17.337Z,26.40
2022-11-16T08:58:44.426Z,25.53
2022-11-16T09:01:19.341Z,25.47
2022-11-16T09:03:46.696Z,28.40
2022-11-16T09:06:14.870Z,23.57
2022-11-16T09:08:44.320Z,25.13
2022-11-16T09:11:14.140Z,26.27
2022-11-16T09:13:40.719Z,26.77
2022-11-16T09:16:07.660Z,25.63
2022-11-16T09:18:35.236Z,27.20
2022-11-16T09:21:02.317Z,23.90
2022-11-16T09:23:28.970Z,26.27
2022-11-16T09:25:55.590Z,24.70
2022-11-16T09:28:22.825Z,22.93
2022-11-16T09:30:51.246Z,23.77
2022-11-16T09:33:17.905Z,23.17
2022-11-16T09:35:44.675Z,23.10
2022-11-16T09:38:15.978Z,19.97
2022-11-16T09:40:47.530Z,19.63
2022-11-16T09:44:05.939Z,18.00
2022-11-16T09:46:37.599Z,18.20
2022-11-16T09:49:17.224Z,19.50
2022-11-16T09:51:50.169Z,17.77
2022-11-16T09:54:44.584Z,18.37
2022-11-16T09:57:15.177Z,16.70
2022-11-16T09:59:49.868Z,17.40
2022-11-16T10:02:23.900Z,18.17
2022-11-16T10:05:18.117Z,15.50
2022-11-16T10:07:48.358Z,17.83
2022-11-16T10:10:30.471Z,17.40
2022-11-16T10:13:12.757Z,17.20
2022-11-16T10:16:05.014Z,14.70
2022-11-16T10:18:52.732Z,17.07
2022-11-16T10:21:43.830Z,14.43
2022-11-16T10:24:33.330Z,16.37
2022-11-16T10:27:51.106Z,15.20
2022-11-16T10:30:20.476Z,15.17
2022-11-16T10:32:53.319Z,15.57
2022-11-16T10:35:25.697Z,16.53
2022-11-16T10:37:52.381Z,17.07
2022-11-16T10:40:19.537Z,17.63
2022-11-16T10:43:13.234Z,16.30
2022-11-16T10:46:16.789Z,15.97
2022-11-16T10:48:57.143Z,16.70
2022-11-16T10:51:23.792Z,16.00
2022-11-16T10:53:50.876Z,17.10
2022-11-16T10:56:40.519Z,16.80
2022-11-16T10:59:09.438Z,15.57
2022-11-16T11:01:43.670Z,15.63
2022-11-16T11:04:12.917Z,17.67
2022-11-16T11:06:40.300Z,16.27
2022-11-16T11:09:22.011Z,16.90
2022-11-16T11:12:36.041Z,15.67
2022-11-16T11:15:11.539Z,15.83
2022-11-16T11:17:40.797Z,16.07
2022-11-16T11:20:18.344Z,16.07
2022-11-16T11:23:00.558Z,16.13
2022-11-16T11:25:29.837Z,16.77
2022-11-16T11:28:17.979Z,16.80
2022-11-16T11:31:11.842Z,15.77
2022-11-16T11:34:02.465Z,16.07
2022-11-16T11:36:36.027Z,15.37
2022-11-16T11:39:07.641Z,15.57
2022-11-16T11:41:41.570Z,15.77
2022-11-16T11:44:14.051Z,16.23
2022-11-16T11:47:50.269Z,16.60
2022-11-16T11:49:59.128Z,19.93
2022-11-16T11:52:48.645Z,17.87
2022-11-16T11:55:17.963Z,18.03
2022-11-16T11:57:47.659Z,16.03
2022-11-16T12:00:15.769Z,15.20
2022-11-16T12:02:45.210Z,16.27
2022-11-16T12:05:47.511Z,15.90
2022-11-16T12:08:41.773Z,20.73
2022-11-16T12:11:34.735Z,15.63
2022-11-16T12:14:16.190Z,15.93
2022-11-16T12:17:00.930Z,16.07
2022-11-16T12:19:56.305Z,16.37
2022-11-16T12:22:35.090Z,15.57
2022-11-16T12:25:10.989Z,15.87
2022-11-16T12:28:13.138Z,16.63
2022-11-16T12:30:48.376Z,18.13
2022-11-16T12:33:37.416Z,17.50
2022-11-16T12:36:36.279Z,17.03
2022-11-16T12:39:08.399Z,23.30
2022-11-16T12:41:46.681Z,21.37
2022-11-16T12:44:26.796Z,19.37
2022-11-16T12:47:05.724Z,19.17
2022-11-16T12:50:24.660Z,17.93
2022-11-16T12:53:08.146Z,17.63
2022-11-16T12:55:58.730Z,16.50
2022-11-16T12:58:38.924Z,15.73
2022-11-16T13:01:24.785Z,15.83
2022-11-16T13:03:58.575Z,16.50
2022-11-16T13:06:32.246Z,17.03
2022-11-16T13:09:05.956Z,17.20
2022-11-16T13:11:40.269Z,17.40
2022-11-16T13:14:12.964Z,17.07
2022-11-16T13:16:39.789Z,18.23
2022-11-16T13:19:10.265Z,20.33
2022-11-16T13:22:03.242Z,18.77
2022-11-16T13:24:41.599Z,17.57
2022-11-16T13:27:35.568Z,17.33
2022-11-16T13:30:21.718Z,16.50
2022-11-16T13:33:20.534Z,18.17
2022-11-16T13:35:47.149Z,16.47
2022-11-16T13:38:14.162Z,17.77
2022-11-16T13:40:41.469Z,16.53
2022-11-16T13:43:10.932Z,18.77
2022-11-16T13:45:43.542Z,16.27
2022-11-16T13:48:21.241Z,16.87
2022-11-16T13:50:57.792Z,16.87
2022-11-16T13:56:18.195Z,16.67
2022-11-16T13:58:51.593Z,17.80
2022-11-16T14:01:19.359Z,18.13
2022-11-16T14:03:51.811Z,20.53
2022-11-16T14:06:28.821Z,21.33
2022-11-16T14:08:59.329Z,18.57
2022-11-16T14:11:46.185Z,20.73
2022-11-16T14:14:51.320Z,21.07
2022-11-16T14:17:55.498Z,20.13
2022-11-16T14:21:03.733Z,17.80
2022-11-16T14:23:46.631Z,17.37
2022-11-16T14:26:18.847Z,28.13
2022-11-16T14:29:20.202Z,29.97
2022-11-16T14:31:57.134Z,22.63
2022-11-16T14:34:30.623Z,24.27
2022-11-16T14:36:59.026Z,18.87
2022-11-16T14:39:33.696Z,18.33
2022-11-16T14:42:05.943Z,36.20
2022-11-16T14:44:39.124Z,27.83
2022-11-16T14:47:17.673Z,29.57
2022-11-16T14:49:46.533Z,31.53
2022-11-16T14:52:15.162Z,27.60
2022-11-16T14:54:52.409Z,23.07
2022-11-16T14:57:22.132Z,22.77
2022-11-16T14:59:49.778Z,27.57
2022-11-16T15:02:23.077Z,20.67
2022-11-16T15:04:51.485Z,21.10
2022-11-16T15:07:20.009Z,20.87
2022-11-16T15:09:53.103Z,18.70
2022-11-16T15:12:41.377Z,18.83
2022-11-16T15:15:28.396Z,18.63
2022-11-16T15:18:00.917Z,15.90
2022-11-16T15:20:30.033Z,17.10
2022-11-16T15:23:03.555Z,14.77
2022-11-16T15:25:40.734Z,15.80
2022-11-16T15:28:17.945Z,16.67
2022-11-16T15:31:04.722Z,16.23
2022-11-16T15:33:41.389Z,15.83
2022-11-16T15:36:38.764Z,16.87
2022-11-16T15:39:11.932Z,16.50
2022-11-16T15:41:39.518Z,18.10
2022-11-16T15:44:14.660Z,17.90
2022-11-16T15:46:45.667Z,18.40
2022-11-16T15:49:30.408Z,21.30
2022-11-16T15:52:00.919Z,23.13
2022-11-16T15:54:30.067Z,19.77
2022-11-16T15:57:06.856Z,19.73
2022-11-16T15:59:35.572Z,20.43
2022-11-16T16:02:03.356Z,19.70
2022-11-16T16:04:30.191Z,19.17
2022-11-16T16:07:00.579Z,17.10
2022-11-16T16:09:39.392Z,18.47
2022-11-16T16:12:23.311Z,20.47
2022-11-16T16:14:51.970Z,18.10
2022-11-16T16:17:28.036Z,18.10
2022-11-16T16:19:58.047Z,18.13
2022-11-16T16:22:32.163Z,21.67
2022-11-16T16:24:58.849Z,27.60
2022-11-16T16:27:27.612Z,24.37
2022-11-16T16:30:02.492Z,35.30
2022-11-16T16:32:31.561Z,23.17
2022-11-16T16:35:00.159Z,26.37
2022-11-16T16:37:28.635Z,32.60
2022-11-16T16:39:55.572Z,35.40
2022-11-16T16:42:22.639Z,32.67
2022-11-16T16:44:52.384Z,28.27
2022-11-16T16:47:22.905Z,38.20
2022-11-16T16:49:49.813Z,26.20
2022-11-16T16:52:16.566Z,22.07
2022-11-16T16:54:44.007Z,20.37
2022-11-16T16:57:15.664Z,20.90
2022-11-16T16:59:46.488Z,16.93
2022-11-16T17:02:14.369Z,22.30
2022-11-16T17:04:42.274Z,18.27
2022-11-16T17:07:09.367Z,28.03
2022-11-16T17:09:36.191Z,26.77
2022-11-16T17:12:03.078Z,25.07
2022-11-16T17:14:31.007Z,23.43
2022-11-16T17:16:58.133Z,21.30
2022-11-16T17:19:26.077Z,19.40
2022-11-16T17:21:52.857Z,19.13
2022-11-16T17:24:20.580Z,19.77
2022-11-16T17:26:53.053Z,19.50
2022-11-16T17:29:19.641Z,18.80
2022-11-16T17:31:50.852Z,20.00
2022-11-16T17:34:17.641Z,19.20
2022-11-16T17:36:44.981Z,17.60
2022-11-16T17:39:31.559Z,20.43
2022-11-16T17:41:58.289Z,27.37
2022-11-16T17:44:26.815Z,25.47
2022-11-16T17:46:54.042Z,23.80
2022-11-16T17:49:23.067Z,23.13
2022-11-16T17:51:53.527Z,22.13
2022-11-16T17:54:20.407Z,21.33
2022-11-16T17:56:48.859Z,22.77
2022-11-16T17:59:15.555Z,27.03
2022-11-16T18:01:45.376Z,23.43
2022-11-16T18:04:12.617Z,23.00
2022-11-16T18:06:40.073Z,24.47
2022-11-16T18:09:07.050Z,21.67
2022-11-16T18:11:34.072Z,25.77
2022-11-16T18:14:01.372Z,23.40
2022-11-16T18:16:32.397Z,25.20
2022-11-16T18:19:01.541Z,24.07
2022-11-16T18:21:28.612Z,24.40
2022-11-16T18:23:55.574Z,24.10
2022-11-16T18:26:23.791Z,24.20
2022-11-16T18:28:51.736Z,22.00
2022-11-16T18:31:20.966Z,23.30
2022-11-16T18:33:49.232Z,23.07
2022-11-16T18:36:18.221Z,21.33
2022-11-16T18:39:27.071Z,23.40
2022-11-16T18:41:55.332Z,25.40
2022-11-16T18:44:56.785Z,28.70
2022-11-16T18:47:23.695Z,27.23
2022-11-16T18:49:50.369Z,27.07
2022-11-16T18:52:17.033Z,27.10
2022-11-16T18:54:43.629Z,32.13
2022-11-16T18:57:10.360Z,29.67
2022-11-16T18:59:45.555Z,26.20
2022-11-16T19:02:14.113Z,24.70
2022-11-16T19:04:40.824Z,23.27
2022-11-16T19:07:07.981Z,25.00
2022-11-16T19:09:34.850Z,22.87
2022-11-16T19:12:01.534Z,23.50
2022-11-16T19:14:28.176Z,27.87
2022-11-16T19:16:57.230Z,29.10
2022-11-16T19:19:25.457Z,30.70
2022-11-16T19:21:52.238Z,27.20
2022-11-16T19:24:19.152Z,26.20
2022-11-16T19:26:46.090Z,29.03
2022-11-16T19:29:12.792Z,27.50
2022-11-16T19:31:39.431Z,26.87
2022-11-16T19:34:08.032Z,25.33
2022-11-16T19:36:36.543Z,21.77
2022-11-16T19:39:04.324Z,21.27
2022-11-16T19:41:33.458Z,22.30
2022-11-16T19:44:02.131Z,23.87
2022-11-16T19:46:31.400Z,24.97
2022-11-16T19:48:59.144Z,27.30
2022-11-16T19:51:27.556Z,25.60
2022-11-16T19:53:55.160Z,26.13
2022-11-16T19:56:23.633Z,20.10
2022-11-16T19:58:51.007Z,23.70
2022-11-16T20:01:29.867Z,22.40
2022-11-16T20:03:58.720Z,20.83
2022-11-16T20:06:29.201Z,25.77
2022-11-16T20:09:00.393Z,24.63
2022-11-16T20:11:29.226Z,28.50
2022-11-16T20:14:00.349Z,27.53
2022-11-16T20:16:37.036Z,27.20
2022-11-16T20:19:05.914Z,26.07
2022-11-16T20:21:35.608Z,22.70
2022-11-16T20:24:06.680Z,22.57
2022-11-16T20:26:35.068Z,22.50
2022-11-16T20:29:04.760Z,22.90
2022-11-16T20:31:33.792Z,22.63
2022-11-16T20:34:03.305Z,19.97
2022-11-16T20:36:31.795Z,18.90
2022-11-16T20:38:59.685Z,19.10
2022-11-16T20:41:28.709Z,18.07
2022-11-16T20:44:00.679Z,16.37
2022-11-16T20:46:31.035Z,17.63
2022-11-16T20:49:00.801Z,16.83
2022-11-16T20:51:28.857Z,18.77
2022-11-16T20:53:55.837Z,16.97
2022-11-16T20:56:22.649Z,17.60
2022-11-16T20:58:50.090Z,17.70
2022-11-16T21:01:29.788Z,20.53
2022-11-16T21:03:56.610Z,20.27
2022-11-16T21:06:23.381Z,18.60
2022-11-16T21:08:50.052Z,17.63
2022-11-16T21:11:22.960Z,17.33
2022-11-16T21:14:08.201Z,17.93
2022-11-16T21:16:35.048Z,17.33
2022-11-16T21:19:02.493Z,16.50
2022-11-16T21:21:29.590Z,15.83
2022-11-16T21:23:56.304Z,16.37
2022-11-16T21:26:25.238Z,15.20
2022-11-16T21:28:52.625Z,14.97
2022-11-16T21:31:21.682Z,14.47
2022-11-16T21:33:48.701Z,14.37
2022-11-16T21:36:17.371Z,16.07
2022-11-16T21:38:44.113Z,14.57
2022-11-16T21:41:12.404Z,14.50
2022-11-16T21:43:40.659Z,13.53
2022-11-16T21:46:11.197Z,15.07
2022-11-16T21:48:38.593Z,14.43
2022-11-16T21:51:16.488Z,15.13
2022-11-16T21:53:43.522Z,14.50
2022-11-16T21:56:15.821Z,12.93
2022-11-16T21:58:42.719Z,14.87
2022-11-16T22:01:10.942Z,14.67
2022-11-16T22:03:38.539Z,13.73
2022-11-16T22:06:25.812Z,13.10
2022-11-16T22:08:52.940Z,12.67
2022-11-16T22:11:22.091Z,13.37
2022-11-16T22:13:49.946Z,12.97
2022-11-16T22:16:18.411Z,12.33
2022-11-16T22:18:45.268Z,13.40
2022-11-16T22:21:12.609Z,13.93
2022-11-16T22:23:39.730Z,12.40
2022-11-16T22:26:09.380Z,13.80
2022-11-16T22:28:36.860Z,13.07
2022-11-16T22:31:06.047Z,12.70
2022-11-16T22:33:33.819Z,13.57
2022-11-16T22:36:00.916Z,11.63
2022-11-16T22:38:27.683Z,13.27
2022-11-16T22:40:56.313Z,14.30
2022-11-16T22:43:25.857Z,12.17
2022-11-16T22:45:59.976Z,11.77
2022-11-16T22:48:38.055Z,13.30
2022-11-16T22:51:17.660Z,11.83
2022-11-16T22:53:44.452Z,11.63
2022-11-16T22:56:11.442Z,10.97
2022-11-16T22:58:39.422Z,12.50
2022-11-16T23:01:08.663Z,12.70
2022-11-16T23:03:36.343Z,11.47
2022-11-16T23:06:04.177Z,13.80
2022-11-16T23:08:31.011Z,14.03
2022-11-16T23:11:27.957Z,13.00
2022-11-16T23:14:13.270Z,14.00
2022-11-16T23:16:40.949Z,13.10
2022-11-16T23:23:20.800Z,14.23
2022-11-16T23:26:06.234Z,14.23
2022-11-16T23:28:32.849Z,15.87
2022-11-16T23:31:00.429Z,13.00
2022-11-16T23:33:44.240Z,14.83
2022-11-16T23:36:25.440Z,12.87
2022-11-16T23:41:54.236Z,17.70
2022-11-16T23:44:22.152Z,14.53
2022-11-16T23:46:48.842Z,15.00
2022-11-16T23:49:15.432Z,14.43
2022-11-16T23:51:42.683Z,13.87
2022-11-16T23:54:13.106Z,14.40
2022-11-16T23:56:39.841Z,14.17
2022-11-16T23:59:06.511Z,14.17
